sensor_id;sensor_type;location;lat;lon;timestamp;temperature;humidity
19025;DHT22;9645;51.448;6.260;2023-07-31T00:01:23;16.40;99.90
19025;DHT22;9645;51.448;6.260;2023-07-31T00:03:50;16.30;99.90
19025;DHT22;9645;51.448;6.260;2023-07-31T00:06:17;16.50;99.90
19025;DHT22;9645;51.448;6.260;2023-07-31T00:08:44;16.40;99.90
19025;DHT22;9645;51.448;6.260;2023-07-31T00:11:11;16.40;99.90
19025;DHT22;9645;51.448;6.260;2023-07-31T00:13:38;16.40;99.90
19025;DHT22;9645;51.448;6.260;2023-07-31T00:16:06;16.40;99.90
19025;DHT22;9645;51.448;6.260;2023-07-31T00:18:33;16.40;99.90
19025;DHT22;9645;51.448;6.260;2023-07-31T00:21:00;15.30;99.90
19025;DHT22;9645;51.448;6.260;2023-07-31T00:23:27;16.40;99.90
19025;DHT22;9645;51.448;6.260;2023-07-31T00:25:54;16.40;99.90
19025;DHT22;9645;51.448;6.260;2023-07-31T00:28:21;16.40;99.90
19025;DHT22;9645;51.448;6.260;2023-07-31T00:30:47;16.40;99.90
19025;DHT22;9645;51.448;6.260;2023-07-31T00:33:16;16.50;99.90
19025;DHT22;9645;51.448;6.260;2023-07-31T00:35:43;16.40;99.90
19025;DHT22;9645;51.448;6.260;2023-07-31T00:38:10;16.30;99.90
19025;DHT22;9645;51.448;6.260;2023-07-31T00:40:37;16.50;99.90
19025;DHT22;9645;51.448;6.260;2023-07-31T00:43:04;16.50;99.90
19025;DHT22;9645;51.448;6.260;2023-07-31T00:45:31;16.50;99.90
19025;DHT22;9645;51.448;6.260;2023-07-31T00:47:59;16.50;99.90
19025;DHT22;9645;51.448;6.260;2023-07-31T00:50:28;16.50;99.90
19025;DHT22;9645;51.448;6.260;2023-07-31T00:52:55;16.50;99.90
19025;DHT22;9645;51.448;6.260;2023-07-31T00:55:22;16.50;99.90
19025;DHT22;9645;51.448;6.260;2023-07-31T00:57:51;16.40;99.90
19025;DHT22;9645;51.448;6.260;2023-07-31T01:00:21;16.40;99.90
19025;DHT22;9645;51.448;6.260;2023-07-31T01:02:48;16.40;99.90
19025;DHT22;9645;51.448;6.260;2023-07-31T01:05:15;16.40;99.90
19025;DHT22;9645;51.448;6.260;2023-07-31T01:07:51;16.40;99.90
19025;DHT22;9645;51.448;6.260;2023-07-31T01:10:21;16.40;99.90
19025;DHT22;9645;51.448;6.260;2023-07-31T01:12:50;16.40;99.90
19025;DHT22;9645;51.448;6.260;2023-07-31T01:15:17;18.20;99.90
19025;DHT22;9645;51.448;6.260;2023-07-31T01:17:45;16.40;99.90
19025;DHT22;9645;51.448;6.260;2023-07-31T01:20:22;16.40;99.90
19025;DHT22;9645;51.448;6.260;2023-07-31T01:23:16;16.40;99.90
19025;DHT22;9645;51.448;6.260;2023-07-31T01:26:03;16.40;99.90
19025;DHT22;9645;51.448;6.260;2023-07-31T01:28:38;16.40;99.90
19025;DHT22;9645;51.448;6.260;2023-07-31T01:31:07;16.40;99.90
19025;DHT22;9645;51.448;6.260;2023-07-31T01:33:37;16.40;99.90
19025;DHT22;9645;51.448;6.260;2023-07-31T01:36:04;16.40;99.90
19025;DHT22;9645;51.448;6.260;2023-07-31T01:38:32;16.40;99.90
19025;DHT22;9645;51.448;6.260;2023-07-31T01:41:01;16.40;99.90
19025;DHT22;9645;51.448;6.260;2023-07-31T01:43:29;16.40;99.90
19025;DHT22;9645;51.448;6.260;2023-07-31T01:45:56;16.30;99.90
19025;DHT22;9645;51.448;6.260;2023-07-31T01:48:23;16.40;99.90
19025;DHT22;9645;51.448;6.260;2023-07-31T01:50:50;16.30;99.90
19025;DHT22;9645;51.448;6.260;2023-07-31T01:53:17;16.40;99.90
19025;DHT22;9645;51.448;6.260;2023-07-31T01:55:44;16.30;99.90
19025;DHT22;9645;51.448;6.260;2023-07-31T01:58:12;16.40;99.90
19025;DHT22;9645;51.448;6.260;2023-07-31T02:00:39;16.30;99.90
19025;DHT22;9645;51.448;6.260;2023-07-31T02:03:06;16.40;99.90
19025;DHT22;9645;51.448;6.260;2023-07-31T02:05:33;16.40;99.90
19025;DHT22;9645;51.448;6.260;2023-07-31T02:08:00;16.40;99.90
19025;DHT22;9645;51.448;6.260;2023-07-31T02:10:27;16.40;99.90
19025;DHT22;9645;51.448;6.260;2023-07-31T02:12:54;16.40;99.90
19025;DHT22;9645;51.448;6.260;2023-07-31T02:15:22;16.40;99.90
19025;DHT22;9645;51.448;6.260;2023-07-31T02:17:49;16.40;99.90
19025;DHT22;9645;51.448;6.260;2023-07-31T02:20:16;16.30;99.90
19025;DHT22;9645;51.448;6.260;2023-07-31T02:22:43;16.30;99.90
19025;DHT22;9645;51.448;6.260;2023-07-31T02:25:10;16.30;99.90
19025;DHT22;9645;51.448;6.260;2023-07-31T02:27:37;16.30;99.90
19025;DHT22;9645;51.448;6.260;2023-07-31T02:30:04;16.30;99.90
19025;DHT22;9645;51.448;6.260;2023-07-31T02:32:33;16.30;99.90
19025;DHT22;9645;51.448;6.260;2023-07-31T02:34:59;16.30;99.90
19025;DHT22;9645;51.448;6.260;2023-07-31T02:37:26;16.30;99.90
19025;DHT22;9645;51.448;6.260;2023-07-31T02:39:54;16.30;99.90
19025;DHT22;9645;51.448;6.260;2023-07-31T02:42:21;16.30;99.90
19025;DHT22;9645;51.448;6.260;2023-07-31T02:44:48;16.30;99.90
19025;DHT22;9645;51.448;6.260;2023-07-31T02:47:17;16.30;99.90
19025;DHT22;9645;51.448;6.260;2023-07-31T02:49:45;16.30;99.90
19025;DHT22;9645;51.448;6.260;2023-07-31T02:52:12;16.30;99.90
19025;DHT22;9645;51.448;6.260;2023-07-31T02:54:39;16.40;99.90
19025;DHT22;9645;51.448;6.260;2023-07-31T02:57:06;16.30;99.90
19025;DHT22;9645;51.448;6.260;2023-07-31T02:59:33;16.40;99.90
19025;DHT22;9645;51.448;6.260;2023-07-31T03:02:00;16.40;99.90
19025;DHT22;9645;51.448;6.260;2023-07-31T03:04:27;16.40;99.90
19025;DHT22;9645;51.448;6.260;2023-07-31T03:06:56;16.40;99.90
19025;DHT22;9645;51.448;6.260;2023-07-31T03:09:23;16.30;99.90
19025;DHT22;9645;51.448;6.260;2023-07-31T03:11:50;16.20;99.90
19025;DHT22;9645;51.448;6.260;2023-07-31T03:14:17;16.40;99.90
19025;DHT22;9645;51.448;6.260;2023-07-31T03:16:44;16.60;99.90
19025;DHT22;9645;51.448;6.260;2023-07-31T03:19:11;16.50;99.90
19025;DHT22;9645;51.448;6.260;2023-07-31T03:21:37;16.70;99.90
19025;DHT22;9645;51.448;6.260;2023-07-31T03:24:06;16.50;99.90
19025;DHT22;9645;51.448;6.260;2023-07-31T03:26:33;16.50;99.90
19025;DHT22;9645;51.448;6.260;2023-07-31T03:29:00;16.50;99.90
19025;DHT22;9645;51.448;6.260;2023-07-31T03:31:27;16.50;99.90
19025;DHT22;9645;51.448;6.260;2023-07-31T03:33:54;16.50;99.90
19025;DHT22;9645;51.448;6.260;2023-07-31T03:36:21;16.50;99.90
19025;DHT22;9645;51.448;6.260;2023-07-31T03:38:48;16.50;99.90
19025;DHT22;9645;51.448;6.260;2023-07-31T03:41:16;16.50;99.90
19025;DHT22;9645;51.448;6.260;2023-07-31T03:43:44;16.40;99.90
19025;DHT22;9645;51.448;6.260;2023-07-31T03:46:11;16.50;99.90
19025;DHT22;9645;51.448;6.260;2023-07-31T03:48:38;16.50;99.90
19025;DHT22;9645;51.448;6.260;2023-07-31T03:51:05;16.60;99.90
19025;DHT22;9645;51.448;6.260;2023-07-31T03:53:32;16.50;99.90
19025;DHT22;9645;51.448;6.260;2023-07-31T03:55:59;16.60;99.90
19025;DHT22;9645;51.448;6.260;2023-07-31T03:58:27;16.50;99.90
19025;DHT22;9645;51.448;6.260;2023-07-31T04:00:54;16.50;99.90
19025;DHT22;9645;51.448;6.260;2023-07-31T04:03:21;16.60;99.90
19025;DHT22;9645;51.448;6.260;2023-07-31T04:05:48;16.70;99.90
19025;DHT22;9645;51.448;6.260;2023-07-31T04:08:15;16.70;99.90
19025;DHT22;9645;51.448;6.260;2023-07-31T04:10:42;16.70;99.90
19025;DHT22;9645;51.448;6.260;2023-07-31T04:13:09;16.70;99.90
19025;DHT22;9645;51.448;6.260;2023-07-31T04:15:37;16.70;99.90
19025;DHT22;9645;51.448;6.260;2023-07-31T04:18:04;16.60;99.90
19025;DHT22;9645;51.448;6.260;2023-07-31T04:20:31;16.70;99.90
19025;DHT22;9645;51.448;6.260;2023-07-31T04:22:58;16.70;99.90
19025;DHT22;9645;51.448;6.260;2023-07-31T04:25:25;16.70;99.90
19025;DHT22;9645;51.448;6.260;2023-07-31T04:27:52;16.70;99.90
19025;DHT22;9645;51.448;6.260;2023-07-31T04:30:19;16.70;99.90
19025;DHT22;9645;51.448;6.260;2023-07-31T04:32:48;16.70;99.90
19025;DHT22;9645;51.448;6.260;2023-07-31T04:35:15;16.70;99.90
19025;DHT22;9645;51.448;6.260;2023-07-31T04:37:42;16.70;99.90
19025;DHT22;9645;51.448;6.260;2023-07-31T04:40:10;16.80;99.90
19025;DHT22;9645;51.448;6.260;2023-07-31T04:42:37;16.80;99.90
19025;DHT22;9645;51.448;6.260;2023-07-31T04:45:05;16.80;99.90
19025;DHT22;9645;51.448;6.260;2023-07-31T04:47:32;16.90;99.90
19025;DHT22;9645;51.448;6.260;2023-07-31T04:50:01;16.90;99.90
19025;DHT22;9645;51.448;6.260;2023-07-31T04:52:28;16.90;99.90
19025;DHT22;9645;51.448;6.260;2023-07-31T04:54:54;16.90;99.90
19025;DHT22;9645;51.448;6.260;2023-07-31T04:57:21;17.00;99.90
19025;DHT22;9645;51.448;6.260;2023-07-31T04:59:48;16.90;99.90
19025;DHT22;9645;51.448;6.260;2023-07-31T05:02:15;17.00;99.90
19025;DHT22;9645;51.448;6.260;2023-07-31T05:04:42;16.90;99.90
19025;DHT22;9645;51.448;6.260;2023-07-31T05:07:11;17.00;99.90
19025;DHT22;9645;51.448;6.260;2023-07-31T05:09:38;17.00;99.90
19025;DHT22;9645;51.448;6.260;2023-07-31T05:12:06;17.10;99.90
19025;DHT22;9645;51.448;6.260;2023-07-31T05:14:33;17.10;99.90
19025;DHT22;9645;51.448;6.260;2023-07-31T05:17:00;17.10;99.90
19025;DHT22;9645;51.448;6.260;2023-07-31T05:19:27;17.20;99.90
19025;DHT22;9645;51.448;6.260;2023-07-31T05:21:53;17.20;99.90
19025;DHT22;9645;51.448;6.260;2023-07-31T05:24:22;17.20;99.90
19025;DHT22;9645;51.448;6.260;2023-07-31T05:26:49;17.20;99.90
19025;DHT22;9645;51.448;6.260;2023-07-31T05:29:16;17.20;99.90
19025;DHT22;9645;51.448;6.260;2023-07-31T05:31:43;17.20;99.90
19025;DHT22;9645;51.448;6.260;2023-07-31T05:34:10;17.20;99.90
19025;DHT22;9645;51.448;6.260;2023-07-31T05:36:37;17.20;99.90
19025;DHT22;9645;51.448;6.260;2023-07-31T05:39:06;17.20;99.90
19025;DHT22;9645;51.448;6.260;2023-07-31T05:41:35;17.30;99.90
19025;DHT22;9645;51.448;6.260;2023-07-31T05:44:03;17.20;99.90
19025;DHT22;9645;51.448;6.260;2023-07-31T05:46:30;17.20;99.90
19025;DHT22;9645;51.448;6.260;2023-07-31T05:48:58;17.20;99.90
19025;DHT22;9645;51.448;6.260;2023-07-31T05:51:26;17.20;99.90
19025;DHT22;9645;51.448;6.260;2023-07-31T05:53:53;17.20;99.90
19025;DHT22;9645;51.448;6.260;2023-07-31T05:56:20;17.20;99.90
19025;DHT22;9645;51.448;6.260;2023-07-31T05:58:48;17.30;99.90
19025;DHT22;9645;51.448;6.260;2023-07-31T06:01:16;17.20;99.90
19025;DHT22;9645;51.448;6.260;2023-07-31T06:03:43;17.10;99.90
19025;DHT22;9645;51.448;6.260;2023-07-31T06:06:10;17.10;99.90
19025;DHT22;9645;51.448;6.260;2023-07-31T06:08:39;19.20;99.90
19025;DHT22;9645;51.448;6.260;2023-07-31T06:11:07;17.10;99.90
19025;DHT22;9645;51.448;6.260;2023-07-31T06:13:35;17.10;99.90
19025;DHT22;9645;51.448;6.260;2023-07-31T06:16:03;17.10;99.90
19025;DHT22;9645;51.448;6.260;2023-07-31T06:18:32;15.20;99.90
19025;DHT22;9645;51.448;6.260;2023-07-31T06:20:59;17.10;99.90
19025;DHT22;9645;51.448;6.260;2023-07-31T06:23:26;17.10;99.90
19025;DHT22;9645;51.448;6.260;2023-07-31T06:25:53;17.10;99.90
19025;DHT22;9645;51.448;6.260;2023-07-31T06:28:20;17.10;99.90
19025;DHT22;9645;51.448;6.260;2023-07-31T06:30:47;17.10;99.90
19025;DHT22;9645;51.448;6.260;2023-07-31T06:33:15;17.10;99.90
19025;DHT22;9645;51.448;6.260;2023-07-31T06:35:42;17.10;99.90
19025;DHT22;9645;51.448;6.260;2023-07-31T06:38:09;17.10;99.90
19025;DHT22;9645;51.448;6.260;2023-07-31T06:40:36;17.00;99.90
19025;DHT22;9645;51.448;6.260;2023-07-31T06:43:03;17.00;99.90
19025;DHT22;9645;51.448;6.260;2023-07-31T06:45:33;16.90;99.90
19025;DHT22;9645;51.448;6.260;2023-07-31T06:48:01;16.90;99.90
19025;DHT22;9645;51.448;6.260;2023-07-31T06:50:31;16.90;99.90
19025;DHT22;9645;51.448;6.260;2023-07-31T06:52:58;16.90;99.90
19025;DHT22;9645;51.448;6.260;2023-07-31T06:55:25;16.90;99.90
19025;DHT22;9645;51.448;6.260;2023-07-31T06:57:54;16.80;99.90
19025;DHT22;9645;51.448;6.260;2023-07-31T07:00:22;16.80;99.90
19025;DHT22;9645;51.448;6.260;2023-07-31T07:02:50;16.80;99.90
19025;DHT22;9645;51.448;6.260;2023-07-31T07:05:18;16.80;99.90
19025;DHT22;9645;51.448;6.260;2023-07-31T07:07:48;16.80;99.90
19025;DHT22;9645;51.448;6.260;2023-07-31T07:10:15;16.80;99.90
19025;DHT22;9645;51.448;6.260;2023-07-31T07:12:42;16.80;99.90
19025;DHT22;9645;51.448;6.260;2023-07-31T07:15:10;16.80;99.90
19025;DHT22;9645;51.448;6.260;2023-07-31T07:17:39;16.70;99.90
19025;DHT22;9645;51.448;6.260;2023-07-31T07:20:07;16.80;99.90
19025;DHT22;9645;51.448;6.260;2023-07-31T07:22:37;16.70;99.90
19025;DHT22;9645;51.448;6.260;2023-07-31T07:25:07;16.70;99.90
19025;DHT22;9645;51.448;6.260;2023-07-31T07:27:34;16.70;99.90
19025;DHT22;9645;51.448;6.260;2023-07-31T07:30:02;16.70;99.90
19025;DHT22;9645;51.448;6.260;2023-07-31T07:34:59;16.60;99.90
19025;DHT22;9645;51.448;6.260;2023-07-31T07:37:26;16.50;99.90
19025;DHT22;9645;51.448;6.260;2023-07-31T07:39:54;16.50;99.90
19025;DHT22;9645;51.448;6.260;2023-07-31T07:42:22;16.50;99.90
19025;DHT22;9645;51.448;6.260;2023-07-31T07:44:49;16.50;99.90
19025;DHT22;9645;51.448;6.260;2023-07-31T07:47:16;16.50;99.90
19025;DHT22;9645;51.448;6.260;2023-07-31T07:49:43;16.60;99.90
19025;DHT22;9645;51.448;6.260;2023-07-31T07:52:10;16.60;99.90
19025;DHT22;9645;51.448;6.260;2023-07-31T07:54:40;16.70;99.90
19025;DHT22;9645;51.448;6.260;2023-07-31T07:57:08;16.80;99.90
19025;DHT22;9645;51.448;6.260;2023-07-31T07:59:36;16.80;99.90
19025;DHT22;9645;51.448;6.260;2023-07-31T08:02:04;16.90;99.90
19025;DHT22;9645;51.448;6.260;2023-07-31T08:04:30;17.00;99.90
19025;DHT22;9645;51.448;6.260;2023-07-31T08:06:58;17.00;99.90
19025;DHT22;9645;51.448;6.260;2023-07-31T08:09:25;17.00;99.90
19025;DHT22;9645;51.448;6.260;2023-07-31T08:11:53;17.00;99.90
19025;DHT22;9645;51.448;6.260;2023-07-31T08:14:20;17.00;99.90
19025;DHT22;9645;51.448;6.260;2023-07-31T08:16:48;17.10;99.90
19025;DHT22;9645;51.448;6.260;2023-07-31T08:19:15;17.10;99.90
19025;DHT22;9645;51.448;6.260;2023-07-31T08:21:42;17.10;99.90
19025;DHT22;9645;51.448;6.260;2023-07-31T08:24:09;17.20;99.90
19025;DHT22;9645;51.448;6.260;2023-07-31T08:26:36;17.20;99.90
19025;DHT22;9645;51.448;6.260;2023-07-31T08:29:03;17.10;99.90
19025;DHT22;9645;51.448;6.260;2023-07-31T08:31:30;17.20;99.90
19025;DHT22;9645;51.448;6.260;2023-07-31T08:33:58;17.00;99.90
19025;DHT22;9645;51.448;6.260;2023-07-31T08:36:26;17.00;99.90
19025;DHT22;9645;51.448;6.260;2023-07-31T08:38:57;16.90;99.90
19025;DHT22;9645;51.448;6.260;2023-07-31T08:41:24;16.90;99.90
19025;DHT22;9645;51.448;6.260;2023-07-31T08:43:52;16.90;99.90
19025;DHT22;9645;51.448;6.260;2023-07-31T08:46:21;16.90;99.90
19025;DHT22;9645;51.448;6.260;2023-07-31T08:48:49;16.90;99.90
19025;DHT22;9645;51.448;6.260;2023-07-31T08:51:20;16.90;99.90
19025;DHT22;9645;51.448;6.260;2023-07-31T08:53:48;16.90;99.90
19025;DHT22;9645;51.448;6.260;2023-07-31T08:56:15;17.00;99.90
19025;DHT22;9645;51.448;6.260;2023-07-31T08:58:44;17.00;99.90
19025;DHT22;9645;51.448;6.260;2023-07-31T09:01:12;19.30;99.90
19025;DHT22;9645;51.448;6.260;2023-07-31T09:03:40;17.20;99.90
19025;DHT22;9645;51.448;6.260;2023-07-31T09:06:08;17.20;99.90
19025;DHT22;9645;51.448;6.260;2023-07-31T09:08:41;17.20;99.90
19025;DHT22;9645;51.448;6.260;2023-07-31T09:11:08;17.20;99.90
19025;DHT22;9645;51.448;6.260;2023-07-31T09:13:35;17.20;99.90
19025;DHT22;9645;51.448;6.260;2023-07-31T09:16:03;17.30;99.90
19025;DHT22;9645;51.448;6.260;2023-07-31T09:18:31;17.30;99.90
19025;DHT22;9645;51.448;6.260;2023-07-31T09:21:02;17.30;99.90
19025;DHT22;9645;51.448;6.260;2023-07-31T09:23:46;17.30;99.90
19025;DHT22;9645;51.448;6.260;2023-07-31T09:26:29;17.30;99.90
19025;DHT22;9645;51.448;6.260;2023-07-31T09:28:56;17.30;99.90
19025;DHT22;9645;51.448;6.260;2023-07-31T09:31:32;17.40;99.90
19025;DHT22;9645;51.448;6.260;2023-07-31T09:33:59;17.40;99.90
19025;DHT22;9645;51.448;6.260;2023-07-31T09:36:29;17.40;99.90
19025;DHT22;9645;51.448;6.260;2023-07-31T09:39:02;17.30;99.90
19025;DHT22;9645;51.448;6.260;2023-07-31T09:41:30;17.30;99.90
19025;DHT22;9645;51.448;6.260;2023-07-31T09:43:57;17.30;99.90
19025;DHT22;9645;51.448;6.260;2023-07-31T09:46:27;17.40;99.90
19025;DHT22;9645;51.448;6.260;2023-07-31T09:49:04;17.50;99.90
19025;DHT22;9645;51.448;6.260;2023-07-31T09:51:31;16.00;99.90
19025;DHT22;9645;51.448;6.260;2023-07-31T09:54:09;17.50;99.90
19025;DHT22;9645;51.448;6.260;2023-07-31T09:56:39;17.50;99.90
19025;DHT22;9645;51.448;6.260;2023-07-31T09:59:08;17.70;99.90
19025;DHT22;9645;51.448;6.260;2023-07-31T10:01:38;17.80;99.90
19025;DHT22;9645;51.448;6.260;2023-07-31T10:04:05;17.90;99.90
19025;DHT22;9645;51.448;6.260;2023-07-31T10:06:34;17.90;99.90
19025;DHT22;9645;51.448;6.260;2023-07-31T10:09:02;18.00;99.90
19025;DHT22;9645;51.448;6.260;2023-07-31T10:11:33;18.10;99.90
19025;DHT22;9645;51.448;6.260;2023-07-31T10:14:03;18.10;99.90
19025;DHT22;9645;51.448;6.260;2023-07-31T10:16:31;18.10;99.90
19025;DHT22;9645;51.448;6.260;2023-07-31T10:18:59;18.10;99.90
19025;DHT22;9645;51.448;6.260;2023-07-31T10:21:26;18.10;99.90
19025;DHT22;9645;51.448;6.260;2023-07-31T10:23:54;18.20;99.90
19025;DHT22;9645;51.448;6.260;2023-07-31T10:26:23;18.30;99.90
19025;DHT22;9645;51.448;6.260;2023-07-31T10:28:53;18.30;99.90
19025;DHT22;9645;51.448;6.260;2023-07-31T10:31:21;18.30;99.90
19025;DHT22;9645;51.448;6.260;2023-07-31T10:33:48;18.30;99.90
19025;DHT22;9645;51.448;6.260;2023-07-31T10:36:18;18.40;99.90
19025;DHT22;9645;51.448;6.260;2023-07-31T10:38:46;18.40;99.90
19025;DHT22;9645;51.448;6.260;2023-07-31T10:41:15;18.50;99.90
19025;DHT22;9645;51.448;6.260;2023-07-31T10:43:43;18.50;99.90
19025;DHT22;9645;51.448;6.260;2023-07-31T10:46:12;18.50;99.90
19025;DHT22;9645;51.448;6.260;2023-07-31T10:48:41;18.50;99.90
19025;DHT22;9645;51.448;6.260;2023-07-31T10:51:09;18.60;99.90
19025;DHT22;9645;51.448;6.260;2023-07-31T10:53:38;18.60;99.90
19025;DHT22;9645;51.448;6.260;2023-07-31T10:56:09;18.60;99.90
19025;DHT22;9645;51.448;6.260;2023-07-31T10:58:38;18.60;99.90
19025;DHT22;9645;51.448;6.260;2023-07-31T11:01:06;18.60;99.90
19025;DHT22;9645;51.448;6.260;2023-07-31T11:03:46;18.40;99.90
19025;DHT22;9645;51.448;6.260;2023-07-31T11:06:14;18.30;99.90
19025;DHT22;9645;51.448;6.260;2023-07-31T11:08:43;18.30;99.90
19025;DHT22;9645;51.448;6.260;2023-07-31T11:11:11;18.30;99.90
19025;DHT22;9645;51.448;6.260;2023-07-31T11:13:44;18.30;99.90
19025;DHT22;9645;51.448;6.260;2023-07-31T11:16:12;18.30;99.90
19025;DHT22;9645;51.448;6.260;2023-07-31T11:18:40;18.40;99.90
19025;DHT22;9645;51.448;6.260;2023-07-31T11:21:12;18.50;99.90
19025;DHT22;9645;51.448;6.260;2023-07-31T11:23:40;18.60;99.90
19025;DHT22;9645;51.448;6.260;2023-07-31T11:26:07;18.70;99.90
19025;DHT22;9645;51.448;6.260;2023-07-31T11:28:34;18.70;99.90
19025;DHT22;9645;51.448;6.260;2023-07-31T11:31:02;18.70;99.90
19025;DHT22;9645;51.448;6.260;2023-07-31T11:33:29;18.70;99.90
19025;DHT22;9645;51.448;6.260;2023-07-31T11:35:56;18.80;99.90
19025;DHT22;9645;51.448;6.260;2023-07-31T11:38:26;18.60;99.90
19025;DHT22;9645;51.448;6.260;2023-07-31T11:40:54;18.60;99.90
19025;DHT22;9645;51.448;6.260;2023-07-31T11:43:22;18.50;99.90
19025;DHT22;9645;51.448;6.260;2023-07-31T11:45:51;18.40;99.90
19025;DHT22;9645;51.448;6.260;2023-07-31T11:48:19;18.40;99.90
19025;DHT22;9645;51.448;6.260;2023-07-31T11:50:48;18.60;99.90
19025;DHT22;9645;51.448;6.260;2023-07-31T11:53:19;18.80;99.90
19025;DHT22;9645;51.448;6.260;2023-07-31T11:55:48;18.90;99.90
19025;DHT22;9645;51.448;6.260;2023-07-31T11:58:16;19.00;99.90
19025;DHT22;9645;51.448;6.260;2023-07-31T12:00:45;19.10;99.90
19025;DHT22;9645;51.448;6.260;2023-07-31T12:03:12;19.30;99.90
19025;DHT22;9645;51.448;6.260;2023-07-31T12:05:39;19.40;99.90
19025;DHT22;9645;51.448;6.260;2023-07-31T12:08:09;19.40;99.90
19025;DHT22;9645;51.448;6.260;2023-07-31T12:10:38;19.40;99.90
19025;DHT22;9645;51.448;6.260;2023-07-31T12:13:09;19.50;99.90
19025;DHT22;9645;51.448;6.260;2023-07-31T12:15:40;19.50;99.90
19025;DHT22;9645;51.448;6.260;2023-07-31T12:18:10;19.50;99.90
19025;DHT22;9645;51.448;6.260;2023-07-31T12:20:42;19.40;99.90
19025;DHT22;9645;51.448;6.260;2023-07-31T12:23:20;19.30;99.90
19025;DHT22;9645;51.448;6.260;2023-07-31T12:26:00;19.30;99.90
19025;DHT22;9645;51.448;6.260;2023-07-31T12:28:29;19.30;99.90
19025;DHT22;9645;51.448;6.260;2023-07-31T12:30:58;19.30;99.90
19025;DHT22;9645;51.448;6.260;2023-07-31T12:33:31;19.20;99.90
19025;DHT22;9645;51.448;6.260;2023-07-31T12:36:01;19.00;99.90
19025;DHT22;9645;51.448;6.260;2023-07-31T12:38:29;19.00;99.90
19025;DHT22;9645;51.448;6.260;2023-07-31T12:40:56;19.00;99.90
19025;DHT22;9645;51.448;6.260;2023-07-31T12:43:22;19.00;99.90
19025;DHT22;9645;51.448;6.260;2023-07-31T12:45:51;19.00;99.90
19025;DHT22;9645;51.448;6.260;2023-07-31T12:48:18;19.10;99.90
19025;DHT22;9645;51.448;6.260;2023-07-31T12:50:45;19.10;99.90
19025;DHT22;9645;51.448;6.260;2023-07-31T12:53:12;19.10;99.90
19025;DHT22;9645;51.448;6.260;2023-07-31T12:55:39;19.10;99.90
19025;DHT22;9645;51.448;6.260;2023-07-31T12:58:06;19.10;99.90
19025;DHT22;9645;51.448;6.260;2023-07-31T13:00:33;19.10;99.90
19025;DHT22;9645;51.448;6.260;2023-07-31T13:03:01;19.00;99.90
19025;DHT22;9645;51.448;6.260;2023-07-31T13:05:28;18.90;99.90
19025;DHT22;9645;51.448;6.260;2023-07-31T13:07:55;18.90;99.90
19025;DHT22;9645;51.448;6.260;2023-07-31T13:10:23;18.90;99.90
19025;DHT22;9645;51.448;6.260;2023-07-31T13:12:52;18.90;99.90
19025;DHT22;9645;51.448;6.260;2023-07-31T13:15:19;19.00;99.90
19025;DHT22;9645;51.448;6.260;2023-07-31T13:17:46;19.00;99.90
19025;DHT22;9645;51.448;6.260;2023-07-31T13:20:15;19.10;99.90
19025;DHT22;9645;51.448;6.260;2023-07-31T13:22:43;19.00;99.90
19025;DHT22;9645;51.448;6.260;2023-07-31T13:25:10;19.00;99.90
19025;DHT22;9645;51.448;6.260;2023-07-31T13:27:40;19.10;99.90
19025;DHT22;9645;51.448;6.260;2023-07-31T13:30:22;19.30;99.90
19025;DHT22;9645;51.448;6.260;2023-07-31T13:32:49;19.20;99.90
19025;DHT22;9645;51.448;6.260;2023-07-31T13:35:17;19.30;99.90
19025;DHT22;9645;51.448;6.260;2023-07-31T13:37:44;19.30;99.90
19025;DHT22;9645;51.448;6.260;2023-07-31T13:40:11;19.40;99.90
19025;DHT22;9645;51.448;6.260;2023-07-31T13:42:38;19.50;99.90
19025;DHT22;9645;51.448;6.260;2023-07-31T13:45:06;19.60;99.90
19025;DHT22;9645;51.448;6.260;2023-07-31T13:47:33;19.70;99.90
19025;DHT22;9645;51.448;6.260;2023-07-31T13:50:00;19.80;99.90
19025;DHT22;9645;51.448;6.260;2023-07-31T13:52:28;19.80;99.90
19025;DHT22;9645;51.448;6.260;2023-07-31T13:54:55;19.90;99.90
19025;DHT22;9645;51.448;6.260;2023-07-31T13:57:22;19.90;99.90
19025;DHT22;9645;51.448;6.260;2023-07-31T13:59:49;20.00;99.90
19025;DHT22;9645;51.448;6.260;2023-07-31T14:02:16;19.90;99.90
19025;DHT22;9645;51.448;6.260;2023-07-31T14:04:43;19.80;99.90
19025;DHT22;9645;51.448;6.260;2023-07-31T14:07:10;19.80;99.90
19025;DHT22;9645;51.448;6.260;2023-07-31T14:09:38;19.80;99.90
19025;DHT22;9645;51.448;6.260;2023-07-31T14:12:06;19.80;99.90
19025;DHT22;9645;51.448;6.260;2023-07-31T14:14:33;19.80;99.90
19025;DHT22;9645;51.448;6.260;2023-07-31T14:17:00;19.80;99.90
19025;DHT22;9645;51.448;6.260;2023-07-31T14:19:28;19.70;99.90
19025;DHT22;9645;51.448;6.260;2023-07-31T14:21:55;19.60;99.90
19025;DHT22;9645;51.448;6.260;2023-07-31T14:24:22;19.50;99.90
19025;DHT22;9645;51.448;6.260;2023-07-31T14:26:50;19.30;99.90
19025;DHT22;9645;51.448;6.260;2023-07-31T14:29:17;19.20;99.90
19025;DHT22;9645;51.448;6.260;2023-07-31T14:31:47;19.10;99.90
19025;DHT22;9645;51.448;6.260;2023-07-31T14:34:14;19.00;99.90
19025;DHT22;9645;51.448;6.260;2023-07-31T14:36:42;19.00;99.90
19025;DHT22;9645;51.448;6.260;2023-07-31T14:39:10;19.00;99.90
19025;DHT22;9645;51.448;6.260;2023-07-31T14:41:39;19.00;99.90
19025;DHT22;9645;51.448;6.260;2023-07-31T14:44:07;19.00;99.90
19025;DHT22;9645;51.448;6.260;2023-07-31T14:46:34;19.00;99.90
19025;DHT22;9645;51.448;6.260;2023-07-31T14:49:01;19.00;99.90
19025;DHT22;9645;51.448;6.260;2023-07-31T14:51:28;19.00;99.90
19025;DHT22;9645;51.448;6.260;2023-07-31T14:53:55;19.10;99.90
19025;DHT22;9645;51.448;6.260;2023-07-31T14:56:22;19.10;99.90
19025;DHT22;9645;51.448;6.260;2023-07-31T14:58:49;19.10;99.90
19025;DHT22;9645;51.448;6.260;2023-07-31T15:01:17;19.10;99.90
19025;DHT22;9645;51.448;6.260;2023-07-31T15:03:44;19.00;99.90
19025;DHT22;9645;51.448;6.260;2023-07-31T15:06:11;18.90;99.90
19025;DHT22;9645;51.448;6.260;2023-07-31T15:08:40;18.90;99.90
19025;DHT22;9645;51.448;6.260;2023-07-31T15:11:09;18.90;99.90
19025;DHT22;9645;51.448;6.260;2023-07-31T15:13:36;19.10;99.90
19025;DHT22;9645;51.448;6.260;2023-07-31T15:16:03;19.10;99.90
19025;DHT22;9645;51.448;6.260;2023-07-31T15:18:32;19.10;99.90
19025;DHT22;9645;51.448;6.260;2023-07-31T15:20:59;19.10;99.90
19025;DHT22;9645;51.448;6.260;2023-07-31T15:23:26;18.90;99.90
19025;DHT22;9645;51.448;6.260;2023-07-31T15:26:04;18.80;99.90
19025;DHT22;9645;51.448;6.260;2023-07-31T15:28:36;18.70;99.90
19025;DHT22;9645;51.448;6.260;2023-07-31T15:31:04;18.50;99.90
19025;DHT22;9645;51.448;6.260;2023-07-31T15:33:32;18.50;99.90
19025;DHT22;9645;51.448;6.260;2023-07-31T15:35:59;18.40;99.90
19025;DHT22;9645;51.448;6.260;2023-07-31T15:38:26;18.30;99.90
19025;DHT22;9645;51.448;6.260;2023-07-31T15:40:53;17.70;99.90
19025;DHT22;9645;51.448;6.260;2023-07-31T15:43:20;18.30;99.90
19025;DHT22;9645;51.448;6.260;2023-07-31T15:45:47;18.20;99.90
19025;DHT22;9645;51.448;6.260;2023-07-31T15:48:14;18.20;99.90
19025;DHT22;9645;51.448;6.260;2023-07-31T15:50:43;18.20;99.90
19025;DHT22;9645;51.448;6.260;2023-07-31T15:53:10;18.10;99.90